Paradise, MI (49768)

9:08 AM EDT on August 25, 2016 (GMT -0400)
MARITIME | | Change Station

Elev 577 ft 45.40 °N, 85.40 °W | Updated 3 days ago

Partly Cloudy
Partly Cloudy
73 °F
Feels Like 73 °F
N
8
Wind Variable Wind from WNW
Gusts 12 mph

Today
High -- | Low -- °F
--% Chance of Precip.
Yesterday
High -- | Low -- °F
Precip. -- in
Pressure 29.90 in
Visibility 10.0 miles
Clouds Clear
Dew Point 61 °F
Humidity 67%
Rainfall in
Snow Depth Not available.
6:52 AM 8:31 PM
Last Quarter, 46% visible
METAR KERY 251255Z AUTO 28009KT 10SM CLR 19/17 A2990 RMK AO2 T01860171
Pressure 29.90 in
Visibility 10.0 miles
Clouds Clear
Dew Point 61 °F
Humidity 67%
Rainfall in
Snow Depth Not available.
6:52 AM 8:31 PM
Last Quarter, 46% visible
METAR KERY 251255Z AUTO 28009KT 10SM CLR 19/17 A2990 RMK AO2 T01860171

10-Day Weather Forecast

Almanac

Astronomy

Aug. 25, 2016 Rise Set
Actual Time
Civil Twilight
Nautical Twilight
Astronomical Twilight
Moon
Length of Visible Light
Length of Day
Tomorrow will be .
, % of the Moon is Illuminated

Today's Extremes

State Highs State Lows

Community

WunderPhotos

Upload Photos

1,934,837 photos uploaded!

WunderBlog® & News

Nearby

Air Quality

  Air Quality AQ Index Pollutant
Not available.

Snow Depth

Station Depth Elevation

Earthquake Activity

City Distance Mag. Time & Date
Minimum magnitude displayed is 2.5.

Coastal Water Temperatures

Place Temperature

Stations

Nearby Weather Stations

Station Location Temp. Windchill Dew Point Humidity Wind Precip. Elev Updated Type
                   

Watches & Warnings

There are currently no watches in effect.